Time;durP1;ratioP1;P1;durP2;ratioP2;P2;SDS_P1;SDS_P2;PMS_P1;PMS_P2;Temp;Humidity;BMP_temperature;BMP_pressure;BME280_temperature;BME280_humidity;BME280_pressure;Samples;Min_cycle;Max_cycle;Signal;HPM_P1;HPM_P2
2024/01/27 00:02:08;;;;;;;1.60;1.00;;;;;;;12.64;51.90;97895.33;105636;1255;60530;-36
2024/01/27 00:04:37;;;;;;;1.00;0.80;;;;;;;12.63;51.85;97884.09;105529;1254;74293;-36
2024/01/27 00:07:04;;;;;;;1.00;0.80;;;;;;;12.64;51.84;97878.13;105426;1259;66351;-37
2024/01/27 00:09:31;;;;;;;0.80;0.80;;;;;;;12.64;51.95;97872.27;105580;1254;72609;-37
2024/01/27 00:11:58;;;;;;;1.40;1.00;;;;;;;12.64;51.95;97871.77;105481;1259;60366;-35
2024/01/27 00:14:25;;;;;;;1.20;0.90;;;;;;;12.64;51.96;97872.63;105569;1254;60373;-35
2024/01/27 00:16:51;;;;;;;1.70;1.10;;;;;;;12.64;51.93;97870.33;105628;1259;73604;-35
2024/01/27 00:19:18;;;;;;;1.10;1.00;;;;;;;12.65;51.92;97872.63;105450;1258;65740;-35
2024/01/27 00:21:45;;;;;;;1.80;1.00;;;;;;;12.65;51.87;97868.80;105425;1257;72601;-36
2024/01/27 00:24:13;;;;;;;1.00;0.90;;;;;;;12.65;51.90;97865.80;105498;1259;60543;-35
2024/01/27 00:26:40;;;;;;;2.60;0.90;;;;;;;12.65;51.94;97861.59;105614;1256;60423;-35
2024/01/27 00:29:07;;;;;;;1.40;1.10;;;;;;;12.65;51.91;97859.39;105727;1254;73566;-35
2024/01/27 00:31:33;;;;;;;1.20;1.00;;;;;;;12.65;51.86;97853.15;105481;1257;66254;-36
2024/01/27 00:34:00;;;;;;;1.40;1.00;;;;;;;12.65;51.83;97852.02;105562;1257;72568;-36
2024/01/27 00:36:27;;;;;;;2.80;1.20;;;;;;;12.66;51.83;97848.35;105426;1258;60441;-36
2024/01/27 00:38:54;;;;;;;1.50;0.90;;;;;;;12.65;51.74;97847.39;105532;1257;60456;-36
2024/01/27 00:41:21;;;;;;;1.10;1.00;;;;;;;12.65;51.84;97846.86;105493;1257;73820;-36
2024/01/27 00:43:47;;;;;;;1.40;1.30;;;;;;;12.65;51.78;97845.73;105589;1259;60440;-36
2024/01/27 00:46:14;;;;;;;1.50;1.10;;;;;;;12.65;51.80;97843.80;105538;1259;60349;-34
2024/01/27 00:48:41;;;;;;;1.10;0.90;;;;;;;12.65;51.84;97842.03;105509;1259;60543;-35
2024/01/27 00:51:07;;;;;;;1.40;1.20;;;;;;;12.65;51.77;97842.89;105498;1255;60364;-35
2024/01/27 00:53:34;;;;;;;1.20;1.10;;;;;;;12.66;51.85;97845.89;105595;1258;72678;-35
2024/01/27 00:56:01;;;;;;;1.40;1.20;;;;;;;12.65;51.95;97843.27;105657;1259;66114;-35
2024/01/27 00:58:28;;;;;;;1.30;1.20;;;;;;;12.66;51.77;97843.30;105493;1254;72643;-37
2024/01/27 01:00:54;;;;;;;1.90;1.20;;;;;;;12.66;51.74;97838.47;105537;1260;60463;-35
2024/01/27 01:03:21;;;;;;;2.80;1.40;;;;;;;12.66;51.75;97833.25;105531;1255;60530;-36
2024/01/27 01:05:48;;;;;;;1.30;1.20;;;;;;;12.66;51.77;97826.86;105492;1259;73775;-36
2024/01/27 01:08:15;;;;;;;1.20;1.10;;;;;;;12.67;51.72;97829.91;105457;1255;66362;-36
2024/01/27 01:10:41;;;;;;;1.70;1.20;;;;;;;12.66;51.71;97823.04;105411;1254;72519;-36
2024/01/27 01:13:08;;;;;;;1.80;1.30;;;;;;;12.66;51.72;97820.51;105616;1259;60425;-36
2024/01/27 01:15:35;;;;;;;1.40;1.10;;;;;;;12.67;51.76;97818.84;105413;1254;60497;-36
2024/01/27 01:18:01;;;;;;;1.50;1.40;;;;;;;12.67;51.73;97815.55;105599;1259;73790;-36
2024/01/27 01:20:29;;;;;;;1.40;1.30;;;;;;;12.67;51.76;97817.10;105698;1259;66268;-35
2024/01/27 01:22:56;;;;;;;3.20;1.20;;;;;;;12.67;51.78;97810.73;105717;1260;72413;-34
2024/01/27 01:25:23;;;;;;;2.00;1.30;;;;;;;12.68;51.65;97811.83;105402;1258;60501;-36
2024/01/27 01:27:50;;;;;;;1.50;1.20;;;;;;;12.67;51.71;97812.65;105460;1254;60470;-36
2024/01/27 01:30:16;;;;;;;1.60;1.10;;;;;;;12.67;51.76;97809.58;105622;1259;73555;-35
2024/01/27 01:32:43;;;;;;;1.30;1.20;;;;;;;12.67;51.72;97809.14;105753;1258;65627;-35
2024/01/27 01:35:10;;;;;;;1.90;1.40;;;;;;;12.67;51.65;97801.84;105558;1256;72563;-35
2024/01/27 01:37:37;;;;;;;1.50;1.40;;;;;;;12.67;51.67;97799.67;106036;1259;60555;-36
2024/01/27 01:40:04;;;;;;;1.70;1.40;;;;;;;12.68;51.71;97803.16;105467;1259;60396;-35
2024/01/27 01:42:32;;;;;;;1.80;1.40;;;;;;;12.68;51.73;97805.46;106127;1255;73671;-35
2024/01/27 01:44:58;;;;;;;2.10;1.40;;;;;;;12.68;51.76;97808.31;105578;1259;64029;-36
2024/01/27 01:47:25;;;;;;;1.60;1.50;;;;;;;12.68;51.66;97804.17;105430;1257;72538;-36
2024/01/27 01:49:52;;;;;;;1.60;1.30;;;;;;;12.68;51.65;97805.23;105564;1259;60533;-35
2024/01/27 01:52:21;;;;;;;2.10;1.50;;;;;;;12.68;51.73;97804.48;105083;1263;60623;-36
2024/01/27 01:54:50;;;;;;;1.80;1.50;;;;;;;12.68;51.63;97804.81;105503;1254;72306;-36
2024/01/27 01:57:17;;;;;;;1.60;1.40;;;;;;;12.69;51.66;97805.35;105787;1256;65958;-35
2024/01/27 01:59:44;;;;;;;1.80;1.60;;;;;;;12.68;51.70;97802.67;105637;1257;72571;-35
2024/01/27 02:02:12;;;;;;;2.00;1.50;;;;;;;12.69;51.83;97801.21;105580;1258;60543;-35
2024/01/27 02:04:42;;;;;;;2.20;1.50;;;;;;;12.68;51.57;97799.98;105650;1256;60596;-35
2024/01/27 02:07:09;;;;;;;1.80;1.50;;;;;;;12.69;51.73;97799.38;105593;1258;73235;-35
2024/01/27 02:09:35;;;;;;;1.90;1.50;;;;;;;12.69;51.68;97801.00;105462;1259;66077;-35
2024/01/27 02:12:03;;;;;;;1.50;1.40;;;;;;;12.69;51.55;97804.53;105623;1257;72508;-35
2024/01/27 02:14:30;;;;;;;1.80;1.50;;;;;;;12.69;51.63;97802.02;105657;1258;60902;-36
2024/01/27 02:16:57;;;;;;;1.70;1.50;;;;;;;12.69;51.72;97798.19;105401;1257;60545;-37
2024/01/27 02:19:24;;;;;;;1.90;1.60;;;;;;;12.69;51.59;97798.73;105472;1259;73496;-35
2024/01/27 02:21:51;;;;;;;2.50;1.70;;;;;;;12.69;51.74;97794.11;105607;1259;65815;-35
2024/01/27 02:24:18;;;;;;;2.30;1.60;;;;;;;12.69;51.54;97794.65;105609;1257;72865;-35
2024/01/27 02:26:44;;;;;;;2.20;1.70;;;;;;;12.70;51.64;97791.52;105366;1259;60542;-36
2024/01/27 02:29:11;;;;;;;2.10;1.70;;;;;;;12.69;51.47;97785.89;105464;1257;60457;-36
2024/01/27 02:31:38;;;;;;;1.80;1.60;;;;;;;12.70;51.71;97781.67;105476;1255;73644;-36
2024/01/27 02:34:04;;;;;;;2.10;1.70;;;;;;;12.70;51.60;97791.98;105526;1259;66051;-36
2024/01/27 02:36:31;;;;;;;2.40;1.80;;;;;;;12.70;51.61;97790.38;105635;1257;72412;-36
2024/01/27 02:38:58;;;;;;;2.10;1.80;;;;;;;12.70;51.66;97788.22;105678;1258;60434;-36
2024/01/27 02:41:24;;;;;;;2.30;1.60;;;;;;;12.70;51.58;97785.31;105647;1256;60524;-36
2024/01/27 02:43:51;;;;;;;2.10;1.60;;;;;;;12.70;51.65;97782.63;105655;1258;73610;-36
2024/01/27 02:46:18;;;;;;;2.00;1.50;;;;;;;12.70;51.52;97783.10;105599;1258;65860;-36
2024/01/27 02:48:45;;;;;;;1.80;1.60;;;;;;;12.70;51.58;97782.31;105492;1257;72420;-36
2024/01/27 02:51:13;;;;;;;1.70;1.40;;;;;;;12.70;51.50;97782.77;105610;1257;60517;-36
2024/01/27 02:53:39;;;;;;;2.30;1.60;;;;;;;12.71;51.58;97782.13;105729;1257;60384;-36
2024/01/27 02:56:08;;;;;;;1.80;1.60;;;;;;;12.71;51.56;97786.80;105681;1254;73496;-34
2024/01/27 02:58:35;;;;;;;2.20;1.70;;;;;;;12.71;51.54;97785.02;105577;1256;64298;-34
2024/01/27 03:01:01;;;;;;;1.80;1.60;;;;;;;12.71;51.51;97781.69;105501;1259;72636;-37
2024/01/27 03:03:29;;;;;;;2.00;1.70;;;;;;;12.70;51.57;97777.34;105413;1258;60344;-36
2024/01/27 03:05:55;;;;;;;2.10;1.70;;;;;;;12.71;51.50;97779.31;105463;1257;60879;-35
2024/01/27 03:08:22;;;;;;;2.10;1.80;;;;;;;12.71;51.61;97772.98;105596;1257;73608;-35
2024/01/27 03:10:49;;;;;;;2.10;1.70;;;;;;;12.71;51.53;97772.61;105585;1259;66193;-35
2024/01/27 03:13:15;;;;;;;2.00;1.60;;;;;;;12.71;51.49;97770.67;105670;1254;60434;-35
2024/01/27 03:15:43;;;;;;;2.30;1.70;;;;;;;12.71;51.47;97773.46;105539;1259;60447;-35
2024/01/27 03:18:09;;;;;;;1.90;1.60;;;;;;;12.71;51.46;97772.70;105435;1254;60430;-37
2024/01/27 03:20:36;;;;;;;2.20;1.80;;;;;;;12.71;51.56;97769.00;105517;1258;74319;-36
2024/01/27 03:23:03;;;;;;;1.90;1.60;;;;;;;12.72;51.60;97765.27;105683;1258;65667;-36
2024/01/27 03:25:30;;;;;;;1.80;1.50;;;;;;;12.72;51.63;97760.27;105598;1257;72531;-36
2024/01/27 03:27:57;;;;;;;1.70;1.60;;;;;;;12.72;51.59;97762.44;105502;1259;60566;-36
2024/01/27 03:30:23;;;;;;;2.00;1.80;;;;;;;12.72;51.49;97761.20;105284;1262;60546;-37
2024/01/27 03:32:50;;;;;;;2.60;1.60;;;;;;;12.71;51.57;97761.58;105484;1258;74204;-37
2024/01/27 03:35:17;;;;;;;1.90;1.70;;;;;;;12.72;51.65;97759.20;105526;1259;66210;-36
2024/01/27 03:37:45;;;;;;;2.40;1.60;;;;;;;12.72;51.66;97756.08;105455;1257;72544;-36
2024/01/27 03:40:12;;;;;;;2.20;1.70;;;;;;;12.72;51.67;97756.55;105642;1259;60488;-35
2024/01/27 03:42:39;;;;;;;1.70;1.50;;;;;;;12.72;51.55;97757.78;105798;1254;60363;-35
2024/01/27 03:45:06;;;;;;;2.00;1.70;;;;;;;12.73;51.48;97760.40;105492;1259;74394;-35
2024/01/27 03:47:33;;;;;;;1.60;1.50;;;;;;;12.72;51.60;97758.32;105928;1258;63918;-36
2024/01/27 03:50:00;;;;;;;1.70;1.50;;;;;;;12.72;51.61;97760.53;105594;1257;72420;-36
2024/01/27 03:52:26;;;;;;;1.60;1.50;;;;;;;12.72;51.59;97760.91;105502;1259;60671;-36
2024/01/27 03:54:53;;;;;;;2.60;1.70;;;;;;;12.73;51.43;97759.11;105498;1257;60770;-36
2024/01/27 03:57:20;;;;;;;2.00;1.70;;;;;;;12.73;51.53;97756.12;105440;1258;72582;-35
2024/01/27 03:59:47;;;;;;;2.20;1.60;;;;;;;12.73;51.56;97754.29;105474;1257;66272;-35
2024/01/27 04:02:13;;;;;;;1.60;1.40;;;;;;;12.73;51.43;97754.34;105514;1257;72599;-35
2024/01/27 04:04:40;;;;;;;3.00;1.70;;;;;;;12.73;51.44;97751.16;105568;1259;60540;-35
2024/01/27 04:07:07;;;;;;;2.30;1.70;;;;;;;12.73;51.54;97750.84;105442;1259;60424;-37
2024/01/27 04:09:34;;;;;;;1.80;1.60;;;;;;;12.73;51.57;97750.46;105630;1258;73826;-35
2024/01/27 04:12:01;;;;;;;2.20;1.60;;;;;;;12.73;51.56;97749.71;105703;1259;66145;-35
2024/01/27 04:14:28;;;;;;;2.30;1.70;;;;;;;12.73;51.66;97751.70;105631;1257;72571;-36
2024/01/27 04:16:54;;;;;;;4.40;2.10;;;;;;;12.74;51.56;97750.34;105507;1259;60526;-34
2024/01/27 04:19:21;;;;;;;1.80;1.60;;;;;;;12.74;51.52;97750.88;105706;1258;60441;-36
2024/01/27 04:21:47;;;;;;;2.50;1.70;;;;;;;12.74;51.43;97754.96;105691;1257;73742;-36
2024/01/27 04:24:14;;;;;;;1.80;1.50;;;;;;;12.73;51.47;97756.21;105620;1259;66247;-36
2024/01/27 04:26:41;;;;;;;1.90;1.70;;;;;;;12.74;51.50;97755.94;105589;1257;72596;-36
2024/01/27 04:29:08;;;;;;;2.40;1.70;;;;;;;12.74;51.48;97754.48;105528;1259;60546;-35
2024/01/27 04:31:39;;;;;;;2.40;1.80;;;;;;;12.74;51.56;97756.64;105469;1257;60354;-35
2024/01/27 04:34:06;;;;;;;1.90;1.60;;;;;;;12.73;51.60;97761.53;105515;1255;73737;-35
2024/01/27 04:36:33;;;;;;;2.10;1.80;;;;;;;12.74;51.48;97760.88;105468;1258;65594;-36
2024/01/27 04:39:00;;;;;;;3.20;1.80;;;;;;;12.74;51.58;97758.23;105641;1258;72592;-37
2024/01/27 04:41:26;;;;;;;1.90;1.70;;;;;;;12.74;51.51;97756.26;105466;1259;60899;-35
2024/01/27 04:43:55;;;;;;;2.10;1.80;;;;;;;12.74;51.46;97754.67;105519;1254;60361;-35
2024/01/27 04:46:22;;;;;;;1.60;1.50;;;;;;;12.74;51.48;97755.94;105615;1255;73675;-36
2024/01/27 04:48:49;;;;;;;1.70;1.60;;;;;;;12.74;51.46;97756.64;105479;1259;66305;-33
2024/01/27 04:51:16;;;;;;;2.10;1.80;;;;;;;12.74;51.58;97755.17;105545;1260;73681;-35
2024/01/27 04:53:43;;;;;;;2.00;1.80;;;;;;;12.74;51.43;97759.33;105650;1259;60441;-35
2024/01/27 04:56:09;;;;;;;1.90;1.50;;;;;;;12.74;51.44;97760.48;105572;1255;60466;-34
2024/01/27 04:58:36;;;;;;;1.70;1.60;;;;;;;12.74;51.53;97764.02;105412;1255;73519;-35
2024/01/27 05:01:03;;;;;;;1.90;1.50;;;;;;;12.74;51.45;97766.17;105462;1257;64408;-35
2024/01/27 05:03:30;;;;;;;2.50;1.70;;;;;;;12.74;51.41;97767.86;105521;1254;72470;-35
2024/01/27 05:05:57;;;;;;;2.00;1.80;;;;;;;12.74;51.55;97771.02;105465;1259;60550;-35
2024/01/27 05:08:23;;;;;;;4.00;1.60;;;;;;;12.74;51.37;97767.39;105584;1256;60424;-35
2024/01/27 05:10:50;;;;;;;2.10;1.90;;;;;;;12.74;51.38;97772.09;105494;1257;73681;-35
2024/01/27 05:13:17;;;;;;;2.20;1.80;;;;;;;12.74;51.44;97771.02;105483;1259;65884;-36
2024/01/27 05:15:43;;;;;;;2.60;1.80;;;;;;;12.74;51.43;97769.86;105589;1257;72593;-35
2024/01/27 05:18:10;;;;;;;1.60;1.40;;;;;;;12.74;51.56;97772.86;105485;1259;60559;-36
2024/01/27 05:20:37;;;;;;;1.70;1.60;;;;;;;12.74;51.29;97771.09;105454;1256;60738;-36
2024/01/27 05:23:04;;;;;;;1.60;1.50;;;;;;;12.73;51.59;97772.60;105459;1257;73829;-36
2024/01/27 05:25:30;;;;;;;2.40;1.80;;;;;;;12.74;51.54;97781.08;105489;1259;66119;-36
2024/01/27 05:27:57;;;;;;;2.20;1.80;;;;;;;12.74;51.47;97785.75;105603;1254;72540;-36
2024/01/27 05:30:23;;;;;;;2.00;1.80;;;;;;;12.74;51.38;97787.90;105551;1259;60433;-35
2024/01/27 05:32:50;;;;;;;3.10;1.70;;;;;;;12.74;51.38;97783.89;105488;1258;60444;-36
2024/01/27 05:35:17;;;;;;;2.20;2.00;;;;;;;12.74;51.32;97780.45;105191;1255;73859;-36
2024/01/27 05:37:43;;;;;;;2.10;1.80;;;;;;;12.74;51.35;97777.16;105458;1259;66177;-35
2024/01/27 05:40:11;;;;;;;1.90;1.50;;;;;;;12.74;51.46;97777.85;105446;1257;72673;-36
2024/01/27 05:42:40;;;;;;;2.00;1.80;;;;;;;12.74;51.41;97776.67;105816;1258;60436;-37
2024/01/27 05:45:07;;;;;;;1.90;1.70;;;;;;;12.74;51.44;97781.52;105733;1257;60414;-36
2024/01/27 05:47:34;;;;;;;1.90;1.50;;;;;;;12.73;51.46;97784.41;105959;1255;72816;-34
2024/01/27 05:50:03;;;;;;;2.40;2.00;;;;;;;12.74;51.48;97794.35;105588;1259;63864;-36
2024/01/27 05:52:30;;;;;;;2.10;1.80;;;;;;;12.74;51.34;97795.80;106098;1259;70851;-35
2024/01/27 05:54:56;;;;;;;2.10;1.90;;;;;;;12.74;51.49;97799.88;105655;1259;60546;-36
2024/01/27 05:57:23;;;;;;;2.70;2.00;;;;;;;12.74;51.43;97798.59;105401;1257;60414;-36
2024/01/27 05:59:49;;;;;;;1.90;1.70;;;;;;;12.75;51.41;97803.67;105569;1256;74278;-35
2024/01/27 06:02:17;;;;;;;2.10;1.90;;;;;;;12.74;51.42;97802.50;105516;1259;66123;-34
2024/01/27 06:04:44;;;;;;;2.60;1.70;;;;;;;12.75;51.33;97804.42;105610;1257;72435;-35
2024/01/27 06:07:11;;;;;;;2.00;1.80;;;;;;;12.75;51.37;97802.44;105586;1259;60444;-36
2024/01/27 06:09:38;;;;;;;1.90;1.60;;;;;;;12.74;51.28;97804.35;105500;1256;60553;-36
2024/01/27 06:12:05;;;;;;;2.00;1.80;;;;;;;12.75;51.45;97808.90;105557;1257;74153;-36
2024/01/27 06:14:32;;;;;;;2.00;1.80;;;;;;;12.75;51.42;97809.38;105488;1259;66084;-36
2024/01/27 06:16:59;;;;;;;2.00;1.60;;;;;;;12.75;51.42;97808.99;105490;1259;72586;-36
2024/01/27 06:19:26;;;;;;;2.30;2.10;;;;;;;12.75;51.35;97807.00;105575;1258;60548;-35
2024/01/27 06:21:53;;;;;;;2.40;1.90;;;;;;;12.75;51.35;97808.52;105509;1259;60520;-34
2024/01/27 06:24:20;;;;;;;2.30;2.10;;;;;;;12.75;51.32;97812.81;105469;1255;73454;-35
2024/01/27 06:26:46;;;;;;;2.40;1.90;;;;;;;12.75;51.46;97814.97;105490;1259;65586;-37
2024/01/27 06:29:13;;;;;;;2.60;1.90;;;;;;;12.75;51.31;97817.34;105441;1257;72591;-36
2024/01/27 06:31:40;;;;;;;2.10;1.90;;;;;;;12.75;51.35;97818.66;105555;1260;60412;-36
2024/01/27 06:34:07;;;;;;;2.10;1.60;;;;;;;12.75;51.44;97812.05;105701;1256;60555;-36
2024/01/27 06:36:33;;;;;;;2.70;2.30;;;;;;;12.75;51.38;97812.59;105632;1259;73565;-36
2024/01/27 06:39:00;;;;;;;2.60;2.00;;;;;;;12.74;51.43;97817.17;105546;1262;66185;-35
2024/01/27 06:41:27;;;;;;;2.90;2.00;;;;;;;12.75;51.41;97819.20;105563;1257;72592;-35
2024/01/27 06:43:53;;;;;;;2.60;2.30;;;;;;;12.75;51.44;97817.37;105617;1260;60549;-35
2024/01/27 06:46:20;;;;;;;3.20;2.30;;;;;;;12.75;51.34;97815.38;105570;1257;60521;-35
2024/01/27 06:48:47;;;;;;;1.90;1.70;;;;;;;12.75;51.31;97819.11;105512;1259;73297;-36
2024/01/27 06:51:13;;;;;;;2.50;2.20;;;;;;;12.75;51.40;97818.19;105599;1254;65149;-36
2024/01/27 06:53:40;;;;;;;2.10;1.90;;;;;;;12.75;51.42;97819.36;105660;1254;73227;-36
2024/01/27 06:56:07;;;;;;;2.60;2.00;;;;;;;12.75;51.31;97824.90;105510;1259;60671;-35
2024/01/27 06:58:34;;;;;;;2.20;2.00;;;;;;;12.76;51.39;97831.13;105495;1259;60426;-35
2024/01/27 07:01:01;;;;;;;3.20;2.10;;;;;;;12.76;51.33;97836.50;105626;1257;73472;-35
2024/01/27 07:03:28;;;;;;;2.70;2.00;;;;;;;12.75;51.42;97832.73;105628;1260;66025;-35
2024/01/27 07:05:55;;;;;;;2.50;2.20;;;;;;;12.76;51.38;97836.06;105700;1258;73070;-35
2024/01/27 07:08:22;;;;;;;3.20;2.00;;;;;;;12.76;51.32;97838.27;105470;1260;60549;-36
2024/01/27 07:10:48;;;;;;;2.80;2.20;;;;;;;12.76;51.30;97840.52;105509;1257;60445;-36
2024/01/27 07:13:15;;;;;;;2.70;2.00;;;;;;;12.76;51.39;97844.06;105454;1259;73616;-37
2024/01/27 07:15:42;;;;;;;2.60;2.20;;;;;;;12.76;51.44;97845.13;105453;1260;65997;-37
2024/01/27 07:18:09;;;;;;;2.70;2.20;;;;;;;12.77;51.41;97847.33;105566;1259;71447;-36
2024/01/27 07:20:37;;;;;;;2.10;1.90;;;;;;;12.78;51.40;97851.34;105613;1259;60546;-36
2024/01/27 07:23:04;;;;;;;2.80;2.10;;;;;;;12.78;51.32;97855.23;105553;1257;60415;-36
2024/01/27 07:25:30;;;;;;;2.30;2.00;;;;;;;12.78;51.34;97862.13;105501;1259;73924;-35
2024/01/27 07:27:57;;;;;;;2.10;1.90;;;;;;;12.79;51.34;97859.69;105500;1259;65890;-35
2024/01/27 07:30:24;;;;;;;3.00;2.10;;;;;;;12.79;51.36;97860.86;105440;1255;72420;-36
2024/01/27 07:32:50;;;;;;;3.00;2.30;;;;;;;12.80;51.31;97863.21;105560;1260;60543;-36
2024/01/27 07:35:17;;;;;;;2.00;1.80;;;;;;;12.81;51.35;97867.87;105603;1256;60411;-34
2024/01/27 07:37:44;;;;;;;2.30;2.10;;;;;;;12.81;51.33;97870.05;105559;1255;73814;-37
2024/01/27 07:40:11;;;;;;;2.50;2.10;;;;;;;12.82;51.35;97869.52;105544;1259;66025;-35
2024/01/27 07:42:38;;;;;;;2.80;2.10;;;;;;;12.82;51.39;97872.77;105821;1259;72392;-35
2024/01/27 07:45:05;;;;;;;3.10;2.30;;;;;;;12.83;51.29;97877.48;105481;1259;60540;-36
2024/01/27 07:47:33;;;;;;;3.70;2.40;;;;;;;12.83;51.31;97877.20;105991;1256;60352;-36
2024/01/27 07:49:59;;;;;;;2.50;1.90;;;;;;;12.84;51.39;97878.32;105579;1259;73500;-36
2024/01/27 07:52:26;;;;;;;2.10;1.90;;;;;;;12.84;51.44;97880.02;106047;1260;65761;-36
2024/01/27 07:54:54;;;;;;;2.40;2.10;;;;;;;12.85;51.40;97885.73;105648;1259;72399;-36
2024/01/27 07:57:21;;;;;;;2.60;2.00;;;;;;;12.86;51.44;97886.23;105552;1260;60540;-36
2024/01/27 07:59:48;;;;;;;2.10;1.90;;;;;;;12.86;51.29;97885.63;105481;1259;60437;-36
2024/01/27 08:02:14;;;;;;;2.90;2.20;;;;;;;12.86;51.39;97885.73;105514;1260;73555;-36
2024/01/27 08:04:41;;;;;;;2.60;2.10;;;;;;;12.87;51.31;97888.94;105468;1259;65357;-35
2024/01/27 08:07:09;;;;;;;2.20;1.70;;;;;;;12.88;51.28;97891.03;105416;1260;71453;-36
2024/01/27 08:09:37;;;;;;;2.60;2.20;;;;;;;12.88;51.33;97893.05;105524;1259;61132;-36
2024/01/27 08:12:05;;;;;;;1.90;1.70;;;;;;;12.88;51.32;97896.82;105410;1258;63042;-36
2024/01/27 08:14:33;;;;;;;2.10;1.80;;;;;;;12.89;51.34;97900.39;105594;1260;73736;-36
2024/01/27 08:17:00;;;;;;;2.90;2.20;;;;;;;12.90;51.28;97905.59;105607;1260;65572;-36
2024/01/27 08:19:26;;;;;;;3.30;2.10;;;;;;;12.90;51.30;97911.29;105666;1258;72581;-35
2024/01/27 08:21:53;;;;;;;3.60;2.20;;;;;;;12.91;51.20;97915.60;105597;1260;60550;-35
2024/01/27 08:24:20;;;;;;;2.80;1.90;;;;;;;12.91;51.26;97914.85;105668;1258;60345;-35
2024/01/27 08:26:48;;;;;;;2.90;2.30;;;;;;;12.91;51.18;97913.34;105641;1259;73719;-35
2024/01/27 08:29:14;;;;;;;2.20;2.00;;;;;;;12.92;51.22;97919.04;105587;1260;65934;-35
2024/01/27 08:31:42;;;;;;;3.00;2.00;;;;;;;12.92;51.16;97920.91;105443;1260;72580;-35
2024/01/27 08:34:08;;;;;;;2.90;2.40;;;;;;;12.93;51.19;97928.70;105511;1260;60486;-36
2024/01/27 08:36:35;;;;;;;2.40;2.20;;;;;;;12.93;51.14;97926.27;105551;1259;60894;-35
2024/01/27 08:39:03;;;;;;;2.20;2.00;;;;;;;12.93;51.12;97923.89;105600;1263;73784;-34
2024/01/27 08:41:29;;;;;;;2.10;1.90;;;;;;;12.94;51.19;97930.84;105475;1260;64844;-35
2024/01/27 08:43:56;;;;;;;2.50;2.30;;;;;;;12.94;51.18;97929.02;105463;1260;72440;-35
2024/01/27 08:46:23;;;;;;;2.50;1.90;;;;;;;12.94;51.33;97929.94;105501;1260;60539;-36
2024/01/27 08:48:50;;;;;;;2.60;2.30;;;;;;;12.96;51.28;97931.84;105599;1260;60462;-36
2024/01/27 08:51:17;;;;;;;2.40;2.10;;;;;;;12.96;51.19;97937.85;105343;1254;73574;-37
2024/01/27 08:53:48;;;;;;;2.60;2.40;;;;;;;12.97;51.24;97941.75;105486;1260;65387;-35
2024/01/27 08:56:16;;;;;;;3.00;2.10;;;;;;;12.97;51.23;97944.54;105552;1260;72454;-35
2024/01/27 08:58:44;;;;;;;2.70;2.40;;;;;;;12.98;51.08;97945.38;105547;1258;63057;-37
2024/01/27 09:01:14;;;;;;;2.60;2.10;;;;;;;12.99;51.19;97948.81;105581;1254;60434;-34
2024/01/27 09:03:41;;;;;;;2.40;2.00;;;;;;;12.99;51.10;97952.14;105606;1260;73839;-35
2024/01/27 09:06:08;;;;;;;2.60;2.10;;;;;;;13.00;51.16;97954.71;105653;1260;65992;-35
2024/01/27 09:08:35;;;;;;;2.50;2.10;;;;;;;13.00;51.17;97957.34;105601;1259;72634;-35
2024/01/27 09:11:02;;;;;;;3.20;2.20;;;;;;;13.01;51.22;97956.08;105504;1268;60561;-35
2024/01/27 09:13:29;;;;;;;2.20;2.00;;;;;;;13.01;51.27;97957.41;105349;1258;60560;-37
2024/01/27 09:15:59;;;;;;;2.90;2.00;;;;;;;13.02;51.18;97956.11;105439;1256;73789;-33
2024/01/27 09:18:27;;;;;;;2.10;1.80;;;;;;;13.02;51.17;97960.44;105585;1259;66098;-36
2024/01/27 09:20:54;;;;;;;2.10;1.90;;;;;;;13.03;51.13;97962.84;105500;1258;73156;-36
2024/01/27 09:23:21;;;;;;;2.00;1.80;;;;;;;13.03;51.15;97967.25;105452;1260;60450;-37
2024/01/27 09:25:47;;;;;;;2.60;1.90;;;;;;;13.04;51.20;97974.07;105490;1257;60523;-36
2024/01/27 09:28:15;;;;;;;2.50;2.30;;;;;;;13.05;51.13;97974.86;105611;1260;73761;-36
2024/01/27 09:30:42;;;;;;;3.40;2.30;;;;;;;13.05;51.16;97977.58;105612;1259;66056;-36
2024/01/27 09:33:10;;;;;;;3.20;2.40;;;;;;;13.06;51.21;97982.16;105641;1260;72724;-36
2024/01/27 09:35:36;;;;;;;3.30;1.90;;;;;;;13.07;51.20;97982.54;105506;1267;61076;-37
2024/01/27 09:38:04;;;;;;;2.70;2.20;;;;;;;13.07;51.07;97982.09;105341;1254;60467;-35
2024/01/27 09:40:31;;;;;;;2.30;2.10;;;;;;;13.08;51.15;97977.19;105475;1260;73746;-34
2024/01/27 09:42:59;;;;;;;2.30;1.80;;;;;;;13.08;51.04;97977.27;105471;1259;66209;-35
2024/01/27 09:45:25;;;;;;;3.10;2.30;;;;;;;13.08;51.04;97979.31;105562;1257;73431;-35
2024/01/27 09:47:52;;;;;;;3.10;2.30;;;;;;;13.09;51.15;97980.73;105613;1263;60528;-36
2024/01/27 09:50:20;;;;;;;3.40;2.20;;;;;;;13.10;51.14;97977.23;105307;1256;60524;-35
2024/01/27 09:52:47;;;;;;;3.10;2.10;;;;;;;13.10;51.18;97980.39;105214;1257;73682;-35
2024/01/27 09:55:14;;;;;;;2.10;1.90;;;;;;;13.12;51.11;97979.92;105569;1259;65660;-36
2024/01/27 09:57:41;;;;;;;2.20;2.00;;;;;;;13.12;51.07;97984.55;105708;1260;72512;-35
2024/01/27 10:00:11;;;;;;;3.00;2.20;;;;;;;13.12;51.12;97983.72;105644;1259;60585;-36
2024/01/27 10:02:39;;;;;;;2.50;2.00;;;;;;;13.13;51.14;97983.06;105719;1256;61134;-34
2024/01/27 10:05:08;;;;;;;2.70;2.20;;;;;;;13.14;51.04;97982.80;105668;1257;73905;-35
2024/01/27 10:07:35;;;;;;;2.70;2.10;;;;;;;13.14;51.02;97986.77;105881;1254;66254;-34
2024/01/27 10:10:01;;;;;;;2.50;1.90;;;;;;;13.15;51.04;97990.08;105612;1257;60466;-34
2024/01/27 10:12:28;;;;;;;2.20;1.80;;;;;;;13.15;51.04;97992.42;105509;1261;60348;-36
2024/01/27 10:14:55;;;;;;;3.20;2.10;;;;;;;13.16;50.94;97991.39;105569;1259;60530;-35
2024/01/27 10:17:23;;;;;;;2.20;1.90;;;;;;;13.16;51.01;97991.16;105570;1260;73628;-36
2024/01/27 10:20:03;;;;;;;2.50;1.90;;;;;;;13.18;51.05;97992.14;105540;1260;67197;-36
2024/01/27 10:22:39;;;;;;;2.50;2.20;;;;;;;13.18;51.04;97996.94;105980;1258;73375;-36
2024/01/27 10:25:06;;;;;;;2.10;1.90;;;;;;;13.18;51.14;97995.86;105566;1259;60510;-36
2024/01/27 10:27:32;;;;;;;2.60;2.00;;;;;;;13.19;50.98;98000.18;105953;1258;60357;-35
2024/01/27 10:29:59;;;;;;;3.30;2.20;;;;;;;13.19;51.07;98003.52;105555;1255;74897;-35
2024/01/27 10:32:26;;;;;;;2.80;2.30;;;;;;;13.20;51.10;98010.33;105538;1258;66321;-35
2024/01/27 10:35:08;;;;;;;3.00;2.30;;;;;;;13.20;50.94;98015.17;105619;1254;72611;-35
2024/01/27 10:37:35;;;;;;;2.70;2.00;;;;;;;13.20;50.97;98014.79;105844;1259;60469;-34
2024/01/27 10:40:03;;;;;;;2.70;2.10;;;;;;;13.20;51.02;98018.33;105546;1259;60430;-34
2024/01/27 10:42:30;;;;;;;2.30;2.10;;;;;;;13.21;50.84;98022.04;105482;1260;73574;-35
2024/01/27 10:44:59;;;;;;;2.50;2.10;;;;;;;13.21;51.00;98022.74;105497;1259;65906;-35
2024/01/27 10:47:30;;;;;;;2.10;1.90;;;;;;;13.21;50.87;98025.52;105577;1258;172359;-36
2024/01/27 10:49:58;;;;;;;2.20;2.00;;;;;;;13.21;50.87;98024.08;105605;1255;60552;-36
2024/01/27 10:52:31;;;;;;;2.00;1.80;;;;;;;13.21;50.94;98024.98;105968;1260;60529;-34
2024/01/27 10:55:00;;;;;;;2.20;1.90;;;;;;;13.21;50.80;98025.79;105643;1260;73592;-36
2024/01/27 10:57:27;;;;;;;2.40;2.10;;;;;;;13.21;50.83;98029.61;106071;1259;65929;-37
2024/01/27 10:59:54;;;;;;;3.00;2.00;;;;;;;13.22;50.79;98035.27;105623;1254;72625;-34
2024/01/27 11:02:20;;;;;;;3.40;2.10;;;;;;;13.23;50.89;98038.98;105477;1261;60453;-36
2024/01/27 11:04:48;;;;;;;2.10;1.90;;;;;;;13.24;50.77;98041.65;105362;1260;60402;-36
2024/01/27 11:07:15;;;;;;;2.20;2.00;;;;;;;13.24;50.78;98040.63;105431;1254;75184;-37
2024/01/27 11:09:42;;;;;;;2.80;1.90;;;;;;;13.24;50.80;98039.49;105575;1259;65535;-35
2024/01/27 11:12:09;;;;;;;2.50;2.20;;;;;;;13.24;50.70;98039.42;105370;1260;73367;-37
2024/01/27 11:14:36;;;;;;;2.90;2.20;;;;;;;13.24;50.83;98039.66;105298;1261;60437;-38
2024/01/27 11:17:05;;;;;;;2.40;2.00;;;;;;;13.24;50.77;98045.30;105601;1255;60597;-36
2024/01/27 11:19:33;;;;;;;2.40;1.90;;;;;;;13.24;50.78;98048.25;105505;1261;74648;-36
2024/01/27 11:22:01;;;;;;;2.70;2.10;;;;;;;13.24;50.81;98054.27;105586;1256;66490;-37
2024/01/27 11:24:28;;;;;;;2.70;2.40;;;;;;;13.24;50.68;98059.94;105432;1260;70390;-36